sensor_id;sensor_type;location;lat;lon;timestamp;P1;durP1;ratioP1;P2;durP2;ratioP2
73951;SDS011;62304;47.662;18.324;2024-01-11T00:01:51;49.47;;;20.05;;
73951;SDS011;62304;47.662;18.324;2024-01-11T00:04:55;47.05;;;17.23;;
73951;SDS011;62304;47.662;18.324;2024-01-11T00:07:58;43.92;;;17.58;;
73951;SDS011;62304;47.662;18.324;2024-01-11T00:11:01;36.33;;;17.35;;
73951;SDS011;62304;47.662;18.324;2024-01-11T00:14:04;49.83;;;17.93;;
73951;SDS011;62304;47.662;18.324;2024-01-11T00:17:08;43.67;;;17.80;;
73951;SDS011;62304;47.662;18.324;2024-01-11T00:20:11;42.42;;;17.12;;
73951;SDS011;62304;47.662;18.324;2024-01-11T00:23:14;42.87;;;16.70;;
73951;SDS011;62304;47.662;18.324;2024-01-11T00:26:18;36.58;;;17.05;;
73951;SDS011;62304;47.662;18.324;2024-01-11T00:29:21;42.58;;;18.98;;
73951;SDS011;62304;47.662;18.324;2024-01-11T00:32:24;44.25;;;17.40;;
73951;SDS011;62304;47.662;18.324;2024-01-11T00:35:28;46.03;;;17.75;;
73951;SDS011;62304;47.662;18.324;2024-01-11T00:38:31;46.13;;;18.83;;
73951;SDS011;62304;47.662;18.324;2024-01-11T00:41:35;43.13;;;16.92;;
73951;SDS011;62304;47.662;18.324;2024-01-11T00:44:38;39.67;;;16.80;;
73951;SDS011;62304;47.662;18.324;2024-01-11T00:47:42;40.58;;;17.17;;
73951;SDS011;62304;47.662;18.324;2024-01-11T00:50:46;45.85;;;16.73;;
73951;SDS011;62304;47.662;18.324;2024-01-11T00:53:49;42.50;;;17.30;;
73951;SDS011;62304;47.662;18.324;2024-01-11T00:56:52;41.53;;;17.58;;
73951;SDS011;62304;47.662;18.324;2024-01-11T00:59:56;37.25;;;17.00;;
73951;SDS011;62304;47.662;18.324;2024-01-11T01:02:59;34.28;;;15.65;;
73951;SDS011;62304;47.662;18.324;2024-01-11T01:06:02;44.72;;;17.90;;
73951;SDS011;62304;47.662;18.324;2024-01-11T01:09:06;40.10;;;15.05;;
73951;SDS011;62304;47.662;18.324;2024-01-11T01:12:09;48.35;;;17.12;;
73951;SDS011;62304;47.662;18.324;2024-01-11T01:15:12;49.83;;;18.23;;
73951;SDS011;62304;47.662;18.324;2024-01-11T01:18:19;44.30;;;18.20;;
73951;SDS011;62304;47.662;18.324;2024-01-11T01:21:22;40.65;;;16.85;;
73951;SDS011;62304;47.662;18.324;2024-01-11T01:24:25;43.40;;;18.43;;
73951;SDS011;62304;47.662;18.324;2024-01-11T01:27:29;40.67;;;16.50;;
73951;SDS011;62304;47.662;18.324;2024-01-11T01:30:32;36.63;;;15.27;;
73951;SDS011;62304;47.662;18.324;2024-01-11T01:33:35;47.30;;;16.12;;
73951;SDS011;62304;47.662;18.324;2024-01-11T01:36:39;41.88;;;16.58;;
73951;SDS011;62304;47.662;18.324;2024-01-11T01:39:44;39.50;;;15.73;;
73951;SDS011;62304;47.662;18.324;2024-01-11T01:42:48;35.55;;;15.30;;
73951;SDS011;62304;47.662;18.324;2024-01-11T01:45:51;37.00;;;15.27;;
73951;SDS011;62304;47.662;18.324;2024-01-11T01:48:56;44.47;;;16.65;;
73951;SDS011;62304;47.662;18.324;2024-01-11T01:52:00;36.95;;;15.70;;
73951;SDS011;62304;47.662;18.324;2024-01-11T01:55:06;35.40;;;14.90;;
73951;SDS011;62304;47.662;18.324;2024-01-11T01:58:11;33.30;;;13.25;;
73951;SDS011;62304;47.662;18.324;2024-01-11T02:01:16;37.38;;;16.25;;
73951;SDS011;62304;47.662;18.324;2024-01-11T02:04:20;44.13;;;16.08;;
73951;SDS011;62304;47.662;18.324;2024-01-11T02:07:25;44.67;;;15.57;;
73951;SDS011;62304;47.662;18.324;2024-01-11T02:10:28;32.42;;;12.95;;
73951;SDS011;62304;47.662;18.324;2024-01-11T02:13:35;39.35;;;16.15;;
73951;SDS011;62304;47.662;18.324;2024-01-11T02:16:38;43.73;;;14.40;;
73951;SDS011;62304;47.662;18.324;2024-01-11T02:19:41;35.25;;;14.70;;
73951;SDS011;62304;47.662;18.324;2024-01-11T02:22:46;31.02;;;14.45;;
73951;SDS011;62304;47.662;18.324;2024-01-11T02:25:53;36.83;;;13.13;;
73951;SDS011;62304;47.662;18.324;2024-01-11T02:28:57;47.15;;;16.12;;
73951;SDS011;62304;47.662;18.324;2024-01-11T02:32:01;47.40;;;16.25;;
73951;SDS011;62304;47.662;18.324;2024-01-11T02:35:05;44.83;;;15.27;;
73951;SDS011;62304;47.662;18.324;2024-01-11T02:38:09;38.47;;;16.12;;
73951;SDS011;62304;47.662;18.324;2024-01-11T02:41:13;41.80;;;16.27;;
73951;SDS011;62304;47.662;18.324;2024-01-11T02:44:18;36.17;;;16.00;;
73951;SDS011;62304;47.662;18.324;2024-01-11T02:47:21;35.30;;;14.93;;
73951;SDS011;62304;47.662;18.324;2024-01-11T02:50:25;44.50;;;15.93;;
73951;SDS011;62304;47.662;18.324;2024-01-11T02:53:28;236.05;;;79.68;;
73951;SDS011;62304;47.662;18.324;2024-01-11T02:56:37;133.40;;;47.77;;
73951;SDS011;62304;47.662;18.324;2024-01-11T02:59:41;65.62;;;24.60;;
73951;SDS011;62304;47.662;18.324;2024-01-11T03:02:46;43.50;;;15.93;;
73951;SDS011;62304;47.662;18.324;2024-01-11T03:05:49;35.28;;;15.35;;
73951;SDS011;62304;47.662;18.324;2024-01-11T03:08:52;36.03;;;12.75;;
73951;SDS011;62304;47.662;18.324;2024-01-11T03:11:55;35.78;;;15.82;;
73951;SDS011;62304;47.662;18.324;2024-01-11T03:14:58;47.70;;;18.37;;
73951;SDS011;62304;47.662;18.324;2024-01-11T03:18:02;42.03;;;15.33;;
73951;SDS011;62304;47.662;18.324;2024-01-11T03:21:06;38.30;;;13.20;;
73951;SDS011;62304;47.662;18.324;2024-01-11T03:24:09;36.35;;;14.25;;
73951;SDS011;62304;47.662;18.324;2024-01-11T03:27:12;39.57;;;14.07;;
73951;SDS011;62304;47.662;18.324;2024-01-11T03:30:15;33.25;;;14.52;;
73951;SDS011;62304;47.662;18.324;2024-01-11T03:33:19;36.08;;;14.65;;
73951;SDS011;62304;47.662;18.324;2024-01-11T03:36:23;31.35;;;13.05;;
73951;SDS011;62304;47.662;18.324;2024-01-11T03:39:30;18.50;;;9.38;;
73951;SDS011;62304;47.662;18.324;2024-01-11T03:42:33;30.65;;;13.25;;
73951;SDS011;62304;47.662;18.324;2024-01-11T03:45:36;38.20;;;14.77;;
73951;SDS011;62304;47.662;18.324;2024-01-11T03:48:39;30.63;;;11.40;;
73951;SDS011;62304;47.662;18.324;2024-01-11T03:51:43;33.90;;;11.95;;
73951;SDS011;62304;47.662;18.324;2024-01-11T03:54:49;43.87;;;16.12;;
73951;SDS011;62304;47.662;18.324;2024-01-11T03:57:53;35.17;;;14.67;;
73951;SDS011;62304;47.662;18.324;2024-01-11T04:00:56;33.03;;;13.75;;
73951;SDS011;62304;47.662;18.324;2024-01-11T04:04:00;46.30;;;15.65;;
73951;SDS011;62304;47.662;18.324;2024-01-11T04:07:03;38.28;;;15.38;;
73951;SDS011;62304;47.662;18.324;2024-01-11T04:10:07;47.22;;;15.75;;
73951;SDS011;62304;47.662;18.324;2024-01-11T04:13:12;42.00;;;15.32;;
73951;SDS011;62304;47.662;18.324;2024-01-11T04:16:16;33.22;;;12.15;;
73951;SDS011;62304;47.662;18.324;2024-01-11T04:19:19;36.03;;;12.50;;
73951;SDS011;62304;47.662;18.324;2024-01-11T04:22:27;26.42;;;11.48;;
73951;SDS011;62304;47.662;18.324;2024-01-11T04:25:32;32.70;;;12.73;;
73951;SDS011;62304;47.662;18.324;2024-01-11T04:28:36;30.23;;;12.37;;
73951;SDS011;62304;47.662;18.324;2024-01-11T04:31:40;32.92;;;12.82;;
73951;SDS011;62304;47.662;18.324;2024-01-11T04:34:45;33.33;;;12.32;;
73951;SDS011;62304;47.662;18.324;2024-01-11T04:37:48;28.08;;;12.05;;
73951;SDS011;62304;47.662;18.324;2024-01-11T04:40:51;28.25;;;10.88;;
73951;SDS011;62304;47.662;18.324;2024-01-11T04:43:54;34.13;;;12.77;;
73951;SDS011;62304;47.662;18.324;2024-01-11T04:46:58;36.67;;;12.05;;
73951;SDS011;62304;47.662;18.324;2024-01-11T04:50:03;36.77;;;14.27;;
73951;SDS011;62304;47.662;18.324;2024-01-11T04:53:07;42.20;;;16.52;;
73951;SDS011;62304;47.662;18.324;2024-01-11T04:56:11;37.95;;;15.27;;
73951;SDS011;62304;47.662;18.324;2024-01-11T04:59:19;38.87;;;16.30;;
73951;SDS011;62304;47.662;18.324;2024-01-11T05:02:22;45.60;;;15.75;;
73951;SDS011;62304;47.662;18.324;2024-01-11T05:05:26;43.25;;;16.05;;
73951;SDS011;62304;47.662;18.324;2024-01-11T05:08:29;37.17;;;14.52;;
73951;SDS011;62304;47.662;18.324;2024-01-11T05:11:33;42.22;;;16.02;;
73951;SDS011;62304;47.662;18.324;2024-01-11T05:14:36;44.42;;;16.50;;
73951;SDS011;62304;47.662;18.324;2024-01-11T05:17:41;35.67;;;15.25;;
73951;SDS011;62304;47.662;18.324;2024-01-11T05:20:46;50.57;;;17.97;;
73951;SDS011;62304;47.662;18.324;2024-01-11T05:23:52;42.03;;;16.23;;
73951;SDS011;62304;47.662;18.324;2024-01-11T05:26:55;45.72;;;19.95;;
73951;SDS011;62304;47.662;18.324;2024-01-11T05:29:58;51.13;;;17.73;;
73951;SDS011;62304;47.662;18.324;2024-01-11T05:33:02;34.72;;;14.13;;
73951;SDS011;62304;47.662;18.324;2024-01-11T05:36:06;43.92;;;17.10;;
73951;SDS011;62304;47.662;18.324;2024-01-11T05:39:10;40.85;;;16.12;;
73951;SDS011;62304;47.662;18.324;2024-01-11T05:42:15;48.85;;;17.33;;
73951;SDS011;62304;47.662;18.324;2024-01-11T05:45:22;45.97;;;16.37;;
73951;SDS011;62304;47.662;18.324;2024-01-11T05:48:37;50.60;;;18.50;;
73951;SDS011;62304;47.662;18.324;2024-01-11T05:51:45;43.57;;;17.50;;
73951;SDS011;62304;47.662;18.324;2024-01-11T05:54:48;37.83;;;16.08;;
73951;SDS011;62304;47.662;18.324;2024-01-11T05:57:51;37.03;;;16.08;;
73951;SDS011;62304;47.662;18.324;2024-01-11T06:00:55;47.90;;;18.17;;
73951;SDS011;62304;47.662;18.324;2024-01-11T06:03:58;42.72;;;17.48;;
73951;SDS011;62304;47.662;18.324;2024-01-11T06:07:01;41.30;;;17.30;;
73951;SDS011;62304;47.662;18.324;2024-01-11T06:10:05;39.95;;;17.80;;
73951;SDS011;62304;47.662;18.324;2024-01-11T06:13:09;33.15;;;13.10;;
73951;SDS011;62304;47.662;18.324;2024-01-11T06:16:12;40.58;;;15.95;;
73951;SDS011;62304;47.662;18.324;2024-01-11T06:19:16;38.17;;;15.25;;
73951;SDS011;62304;47.662;18.324;2024-01-11T06:22:20;40.87;;;18.70;;
73951;SDS011;62304;47.662;18.324;2024-01-11T06:25:23;38.00;;;15.65;;
73951;SDS011;62304;47.662;18.324;2024-01-11T06:28:27;29.23;;;13.70;;
73951;SDS011;62304;47.662;18.324;2024-01-11T06:31:30;41.77;;;17.30;;
73951;SDS011;62304;47.662;18.324;2024-01-11T06:34:34;36.47;;;15.15;;
73951;SDS011;62304;47.662;18.324;2024-01-11T06:37:38;61.60;;;22.58;;
73951;SDS011;62304;47.662;18.324;2024-01-11T06:40:42;88.12;;;32.88;;
73951;SDS011;62304;47.662;18.324;2024-01-11T06:43:46;55.30;;;21.70;;
73951;SDS011;62304;47.662;18.324;2024-01-11T06:46:49;33.47;;;13.85;;
73951;SDS011;62304;47.662;18.324;2024-01-11T06:49:53;32.97;;;15.20;;
73951;SDS011;62304;47.662;18.324;2024-01-11T06:52:56;35.13;;;16.27;;
73951;SDS011;62304;47.662;18.324;2024-01-11T06:55:59;38.15;;;12.95;;
73951;SDS011;62304;47.662;18.324;2024-01-11T06:59:03;58.13;;;19.60;;
73951;SDS011;62304;47.662;18.324;2024-01-11T07:02:06;58.47;;;21.93;;
73951;SDS011;62304;47.662;18.324;2024-01-11T07:05:11;38.70;;;15.60;;
73951;SDS011;62304;47.662;18.324;2024-01-11T07:08:15;82.53;;;28.35;;
73951;SDS011;62304;47.662;18.324;2024-01-11T07:11:18;48.10;;;15.90;;
73951;SDS011;62304;47.662;18.324;2024-01-11T07:14:22;73.72;;;23.42;;
73951;SDS011;62304;47.662;18.324;2024-01-11T07:17:25;64.57;;;21.62;;
73951;SDS011;62304;47.662;18.324;2024-01-11T07:20:28;48.13;;;17.27;;
73951;SDS011;62304;47.662;18.324;2024-01-11T07:23:32;63.97;;;23.77;;
73951;SDS011;62304;47.662;18.324;2024-01-11T07:26:36;66.72;;;25.10;;
73951;SDS011;62304;47.662;18.324;2024-01-11T07:29:40;42.72;;;19.37;;
73951;SDS011;62304;47.662;18.324;2024-01-11T07:32:43;52.17;;;19.67;;
73951;SDS011;62304;47.662;18.324;2024-01-11T07:35:47;42.95;;;18.50;;
73951;SDS011;62304;47.662;18.324;2024-01-11T07:38:50;30.10;;;13.88;;
73951;SDS011;62304;47.662;18.324;2024-01-11T07:41:54;47.92;;;19.73;;
73951;SDS011;62304;47.662;18.324;2024-01-11T07:44:58;39.70;;;16.25;;
73951;SDS011;62304;47.662;18.324;2024-01-11T07:48:01;41.90;;;18.00;;
73951;SDS011;62304;47.662;18.324;2024-01-11T07:51:07;77.65;;;30.23;;
73951;SDS011;62304;47.662;18.324;2024-01-11T07:54:10;53.60;;;23.63;;
73951;SDS011;62304;47.662;18.324;2024-01-11T07:57:13;50.85;;;21.77;;
73951;SDS011;62304;47.662;18.324;2024-01-11T08:00:16;52.03;;;23.35;;
73951;SDS011;62304;47.662;18.324;2024-01-11T08:03:20;52.03;;;21.73;;
73951;SDS011;62304;47.662;18.324;2024-01-11T08:06:23;49.15;;;21.37;;
73951;SDS011;62304;47.662;18.324;2024-01-11T08:09:27;49.63;;;23.08;;
73951;SDS011;62304;47.662;18.324;2024-01-11T08:12:30;89.93;;;34.42;;
73951;SDS011;62304;47.662;18.324;2024-01-11T08:15:34;63.85;;;28.30;;
73951;SDS011;62304;47.662;18.324;2024-01-11T08:18:37;92.50;;;38.47;;
73951;SDS011;62304;47.662;18.324;2024-01-11T08:21:41;88.20;;;35.55;;
73951;SDS011;62304;47.662;18.324;2024-01-11T08:24:44;76.60;;;33.93;;
73951;SDS011;62304;47.662;18.324;2024-01-11T08:27:48;98.97;;;40.22;;
73951;SDS011;62304;47.662;18.324;2024-01-11T08:30:51;55.92;;;26.27;;
73951;SDS011;62304;47.662;18.324;2024-01-11T08:33:54;89.43;;;36.67;;
73951;SDS011;62304;47.662;18.324;2024-01-11T08:36:59;76.70;;;36.33;;
73951;SDS011;62304;47.662;18.324;2024-01-11T08:40:03;78.95;;;37.10;;
73951;SDS011;62304;47.662;18.324;2024-01-11T08:43:08;75.47;;;34.25;;
73951;SDS011;62304;47.662;18.324;2024-01-11T08:46:23;74.10;;;33.40;;
73951;SDS011;62304;47.662;18.324;2024-01-11T08:49:29;67.57;;;30.10;;
73951;SDS011;62304;47.662;18.324;2024-01-11T08:52:33;59.83;;;26.52;;
73951;SDS011;62304;47.662;18.324;2024-01-11T08:55:39;60.80;;;26.98;;
73951;SDS011;62304;47.662;18.324;2024-01-11T08:58:46;58.03;;;27.93;;
73951;SDS011;62304;47.662;18.324;2024-01-11T09:01:49;55.08;;;26.70;;
73951;SDS011;62304;47.662;18.324;2024-01-11T09:05:08;57.90;;;26.85;;
73951;SDS011;62304;47.662;18.324;2024-01-11T09:08:17;60.25;;;29.27;;
73951;SDS011;62304;47.662;18.324;2024-01-11T09:11:21;45.40;;;20.17;;
73951;SDS011;62304;47.662;18.324;2024-01-11T09:14:25;44.47;;;21.93;;
73951;SDS011;62304;47.662;18.324;2024-01-11T09:17:28;47.10;;;22.77;;
73951;SDS011;62304;47.662;18.324;2024-01-11T09:20:31;40.72;;;21.48;;
73951;SDS011;62304;47.662;18.324;2024-01-11T09:23:37;50.28;;;23.52;;
73951;SDS011;62304;47.662;18.324;2024-01-11T09:26:40;43.13;;;23.00;;
73951;SDS011;62304;47.662;18.324;2024-01-11T09:29:45;36.27;;;17.17;;
73951;SDS011;62304;47.662;18.324;2024-01-11T09:32:52;38.13;;;19.23;;
73951;SDS011;62304;47.662;18.324;2024-01-11T09:35:56;34.35;;;18.05;;
73951;SDS011;62304;47.662;18.324;2024-01-11T09:38:59;35.05;;;20.17;;
73951;SDS011;62304;47.662;18.324;2024-01-11T09:42:07;35.30;;;19.02;;
73951;SDS011;62304;47.662;18.324;2024-01-11T09:45:16;36.50;;;20.13;;
73951;SDS011;62304;47.662;18.324;2024-01-11T09:48:20;38.80;;;18.10;;
73951;SDS011;62304;47.662;18.324;2024-01-11T09:51:25;33.17;;;17.48;;
73951;SDS011;62304;47.662;18.324;2024-01-11T09:54:32;31.05;;;18.60;;
73951;SDS011;62304;47.662;18.324;2024-01-11T09:57:35;37.70;;;19.35;;
73951;SDS011;62304;47.662;18.324;2024-01-11T10:00:43;36.17;;;20.20;;
73951;SDS011;62304;47.662;18.324;2024-01-11T10:03:50;39.80;;;22.17;;
73951;SDS011;62304;47.662;18.324;2024-01-11T10:06:55;37.72;;;20.42;;
73951;SDS011;62304;47.662;18.324;2024-01-11T10:10:00;41.03;;;19.92;;
73951;SDS011;62304;47.662;18.324;2024-01-11T10:13:06;37.67;;;19.30;;
73951;SDS011;62304;47.662;18.324;2024-01-11T10:16:10;34.70;;;16.43;;
73951;SDS011;62304;47.662;18.324;2024-01-11T10:19:17;36.20;;;19.53;;
73951;SDS011;62304;47.662;18.324;2024-01-11T10:22:24;36.33;;;19.87;;
73951;SDS011;62304;47.662;18.324;2024-01-11T10:25:28;30.70;;;16.12;;
73951;SDS011;62304;47.662;18.324;2024-01-11T10:28:33;28.62;;;17.23;;
73951;SDS011;62304;47.662;18.324;2024-01-11T10:31:40;32.73;;;17.93;;
73951;SDS011;62304;47.662;18.324;2024-01-11T10:34:44;26.37;;;12.90;;
73951;SDS011;62304;47.662;18.324;2024-01-11T10:37:47;24.70;;;13.62;;
73951;SDS011;62304;47.662;18.324;2024-01-11T10:40:54;24.00;;;14.40;;
73951;SDS011;62304;47.662;18.324;2024-01-11T10:43:58;26.60;;;12.57;;
73951;SDS011;62304;47.662;18.324;2024-01-11T10:47:05;22.10;;;12.27;;
73951;SDS011;62304;47.662;18.324;2024-01-11T10:50:12;22.20;;;12.07;;
73951;SDS011;62304;47.662;18.324;2024-01-11T10:56:43;24.23;;;13.88;;
73951;SDS011;62304;47.662;18.324;2024-01-11T10:59:46;23.70;;;13.57;;
73951;SDS011;62304;47.662;18.324;2024-01-11T11:02:51;22.93;;;12.40;;
73951;SDS011;62304;47.662;18.324;2024-01-11T11:05:58;21.43;;;11.67;;
73951;SDS011;62304;47.662;18.324;2024-01-11T11:09:04;22.15;;;13.73;;
73951;SDS011;62304;47.662;18.324;2024-01-11T11:12:09;24.73;;;13.18;;
73951;SDS011;62304;47.662;18.324;2024-01-11T11:15:13;21.17;;;11.90;;
73951;SDS011;62304;47.662;18.324;2024-01-11T11:18:23;24.03;;;11.13;;
73951;SDS011;62304;47.662;18.324;2024-01-11T11:21:27;23.00;;;12.93;;
73951;SDS011;62304;47.662;18.324;2024-01-11T11:24:33;22.37;;;12.50;;
73951;SDS011;62304;47.662;18.324;2024-01-11T11:27:37;14.27;;;7.28;;
73951;SDS011;62304;47.662;18.324;2024-01-11T11:30:41;25.98;;;12.30;;
73951;SDS011;62304;47.662;18.324;2024-01-11T11:33:45;21.60;;;11.63;;
73951;SDS011;62304;47.662;18.324;2024-01-11T11:36:53;20.03;;;10.90;;
73951;SDS011;62304;47.662;18.324;2024-01-11T11:39:58;18.00;;;11.15;;
73951;SDS011;62304;47.662;18.324;2024-01-11T11:43:04;13.20;;;7.05;;
73951;SDS011;62304;47.662;18.324;2024-01-11T11:46:08;18.50;;;10.68;;
73951;SDS011;62304;47.662;18.324;2024-01-11T11:49:12;20.57;;;9.87;;
73951;SDS011;62304;47.662;18.324;2024-01-11T11:52:16;15.40;;;8.33;;
73951;SDS011;62304;47.662;18.324;2024-01-11T11:55:20;22.75;;;11.40;;
73951;SDS011;62304;47.662;18.324;2024-01-11T11:58:27;13.10;;;7.00;;
73951;SDS011;62304;47.662;18.324;2024-01-11T12:01:31;21.92;;;11.00;;
73951;SDS011;62304;47.662;18.324;2024-01-11T12:04:38;19.97;;;10.83;;
73951;SDS011;62304;47.662;18.324;2024-01-11T12:07:42;16.37;;;9.33;;
73951;SDS011;62304;47.662;18.324;2024-01-11T12:10:45;25.02;;;10.57;;
73951;SDS011;62304;47.662;18.324;2024-01-11T12:14:02;20.92;;;10.77;;
73951;SDS011;62304;47.662;18.324;2024-01-11T12:17:08;15.27;;;7.85;;
73951;SDS011;62304;47.662;18.324;2024-01-11T12:20:11;18.27;;;10.27;;
73951;SDS011;62304;47.662;18.324;2024-01-11T12:23:16;20.73;;;11.17;;
73951;SDS011;62304;47.662;18.324;2024-01-11T12:26:21;21.48;;;11.27;;
73951;SDS011;62304;47.662;18.324;2024-01-11T12:29:28;24.63;;;13.32;;
73951;SDS011;62304;47.662;18.324;2024-01-11T12:32:44;18.23;;;7.93;;
73951;SDS011;62304;47.662;18.324;2024-01-11T12:35:50;25.80;;;12.40;;
73951;SDS011;62304;47.662;18.324;2024-01-11T12:38:53;20.03;;;10.33;;
73951;SDS011;62304;47.662;18.324;2024-01-11T12:41:56;17.65;;;8.85;;
73951;SDS011;62304;47.662;18.324;2024-01-11T12:45:00;22.80;;;12.37;;
73951;SDS011;62304;47.662;18.324;2024-01-11T12:48:07;20.52;;;10.57;;
73951;SDS011;62304;47.662;18.324;2024-01-11T12:51:15;20.60;;;10.40;;
73951;SDS011;62304;47.662;18.324;2024-01-11T12:54:24;22.27;;;12.60;;
73951;SDS011;62304;47.662;18.324;2024-01-11T12:57:27;20.62;;;10.93;;
73951;SDS011;62304;47.662;18.324;2024-01-11T13:00:32;22.55;;;12.20;;
73951;SDS011;62304;47.662;18.324;2024-01-11T13:03:37;26.85;;;13.65;;
73951;SDS011;62304;47.662;18.324;2024-01-11T13:06:41;22.63;;;12.97;;
73951;SDS011;62304;47.662;18.324;2024-01-11T13:09:45;24.37;;;12.53;;
73951;SDS011;62304;47.662;18.324;2024-01-11T13:12:48;17.55;;;9.32;;
73951;SDS011;62304;47.662;18.324;2024-01-11T13:16:04;20.90;;;10.65;;
73951;SDS011;62304;47.662;18.324;2024-01-11T13:19:14;24.27;;;12.07;;
73951;SDS011;62304;47.662;18.324;2024-01-11T13:22:30;26.27;;;13.17;;
73951;SDS011;62304;47.662;18.324;2024-01-11T13:25:33;23.40;;;11.43;;
73951;SDS011;62304;47.662;18.324;2024-01-11T13:28:39;24.63;;;12.18;;
73951;SDS011;62304;47.662;18.324;2024-01-11T13:31:43;26.37;;;11.12;;
73951;SDS011;62304;47.662;18.324;2024-01-11T13:34:47;31.50;;;14.90;;
73951;SDS011;62304;47.662;18.324;2024-01-11T13:37:50;27.70;;;13.23;;
73951;SDS011;62304;47.662;18.324;2024-01-11T13:40:54;33.10;;;13.80;;
73951;SDS011;62304;47.662;18.324;2024-01-11T13:43:57;29.63;;;15.13;;
73951;SDS011;62304;47.662;18.324;2024-01-11T13:47:02;32.35;;;14.07;;
73951;SDS011;62304;47.662;18.324;2024-01-11T13:50:06;36.45;;;16.08;;
73951;SDS011;62304;47.662;18.324;2024-01-11T13:53:10;28.20;;;13.77;;
73951;SDS011;62304;47.662;18.324;2024-01-11T13:56:14;24.23;;;11.30;;
73951;SDS011;62304;47.662;18.324;2024-01-11T13:59:18;19.55;;;7.62;;
73951;SDS011;62304;47.662;18.324;2024-01-11T14:02:22;23.50;;;10.82;;
73951;SDS011;62304;47.662;18.324;2024-01-11T14:05:27;12.52;;;6.72;;
73951;SDS011;62304;47.662;18.324;2024-01-11T14:08:31;44.13;;;18.60;;
73951;SDS011;62304;47.662;18.324;2024-01-11T14:11:35;29.65;;;10.52;;
73951;SDS011;62304;47.662;18.324;2024-01-11T14:14:38;41.63;;;18.45;;
73951;SDS011;62304;47.662;18.324;2024-01-11T14:17:42;41.15;;;17.67;;
73951;SDS011;62304;47.662;18.324;2024-01-11T14:20:45;39.97;;;17.35;;
73951;SDS011;62304;47.662;18.324;2024-01-11T14:23:49;23.73;;;10.27;;
73951;SDS011;62304;47.662;18.324;2024-01-11T14:26:53;36.60;;;16.30;;
73951;SDS011;62304;47.662;18.324;2024-01-11T14:29:57;41.88;;;18.85;;
73951;SDS011;62304;47.662;18.324;2024-01-11T14:33:00;42.67;;;17.75;;
73951;SDS011;62304;47.662;18.324;2024-01-11T14:36:05;17.30;;;8.20;;
73951;SDS011;62304;47.662;18.324;2024-01-11T14:39:09;46.28;;;18.33;;
73951;SDS011;62304;47.662;18.324;2024-01-11T14:42:12;31.02;;;11.25;;
73951;SDS011;62304;47.662;18.324;2024-01-11T14:45:15;37.65;;;14.25;;
73951;SDS011;62304;47.662;18.324;2024-01-11T14:48:20;16.65;;;6.62;;
73951;SDS011;62304;47.662;18.324;2024-01-11T14:51:27;23.45;;;10.15;;
73951;SDS011;62304;47.662;18.324;2024-01-11T14:54:36;44.05;;;19.87;;
73951;SDS011;62304;47.662;18.324;2024-01-11T14:57:39;34.85;;;16.58;;
73951;SDS011;62304;47.662;18.324;2024-01-11T15:00:43;46.73;;;20.10;;
73951;SDS011;62304;47.662;18.324;2024-01-11T15:03:47;45.80;;;21.23;;
73951;SDS011;62304;47.662;18.324;2024-01-11T15:06:51;20.67;;;11.93;;
73951;SDS011;62304;47.662;18.324;2024-01-11T15:09:56;35.42;;;14.63;;
73951;SDS011;62304;47.662;18.324;2024-01-11T15:12:59;47.40;;;21.67;;
73951;SDS011;62304;47.662;18.324;2024-01-11T15:16:02;43.78;;;18.90;;
73951;SDS011;62304;47.662;18.324;2024-01-11T15:19:06;49.80;;;22.62;;
73951;SDS011;62304;47.662;18.324;2024-01-11T15:22:09;46.03;;;22.35;;
73951;SDS011;62304;47.662;18.324;2024-01-11T15:25:15;30.88;;;12.73;;
73951;SDS011;62304;47.662;18.324;2024-01-11T15:28:19;50.35;;;20.00;;
73951;SDS011;62304;47.662;18.324;2024-01-11T15:31:26;43.75;;;19.98;;
73951;SDS011;62304;47.662;18.324;2024-01-11T15:34:29;54.97;;;23.03;;
73951;SDS011;62304;47.662;18.324;2024-01-11T15:37:35;43.03;;;20.45;;
73951;SDS011;62304;47.662;18.324;2024-01-11T15:40:38;47.47;;;19.37;;
73951;SDS011;62304;47.662;18.324;2024-01-11T15:43:44;19.80;;;9.20;;
73951;SDS011;62304;47.662;18.324;2024-01-11T15:46:49;35.37;;;15.07;;
73951;SDS011;62304;47.662;18.324;2024-01-11T15:49:53;38.40;;;19.65;;
73951;SDS011;62304;47.662;18.324;2024-01-11T15:52:56;39.50;;;18.27;;
73951;SDS011;62304;47.662;18.324;2024-01-11T15:55:59;17.23;;;9.75;;
73951;SDS011;62304;47.662;18.324;2024-01-11T15:59:03;44.80;;;20.20;;
73951;SDS011;62304;47.662;18.324;2024-01-11T16:02:06;53.28;;;22.87;;
73951;SDS011;62304;47.662;18.324;2024-01-11T16:05:11;46.37;;;22.10;;
73951;SDS011;62304;47.662;18.324;2024-01-11T16:08:15;48.55;;;20.55;;
73951;SDS011;62304;47.662;18.324;2024-01-11T16:11:21;49.72;;;21.52;;
73951;SDS011;62304;47.662;18.324;2024-01-11T16:14:24;42.45;;;21.00;;
73951;SDS011;62304;47.662;18.324;2024-01-11T16:17:28;44.08;;;19.52;;
73951;SDS011;62304;47.662;18.324;2024-01-11T16:20:37;49.00;;;22.33;;
73951;SDS011;62304;47.662;18.324;2024-01-11T16:23:40;47.25;;;22.40;;
73951;SDS011;62304;47.662;18.324;2024-01-11T16:26:44;43.80;;;20.05;;
73951;SDS011;62304;47.662;18.324;2024-01-11T16:29:48;50.72;;;20.85;;
73951;SDS011;62304;47.662;18.324;2024-01-11T16:32:51;43.10;;;20.57;;
73951;SDS011;62304;47.662;18.324;2024-01-11T16:35:54;41.20;;;19.02;;
73951;SDS011;62304;47.662;18.324;2024-01-11T16:39:00;46.92;;;20.05;;
73951;SDS011;62304;47.662;18.324;2024-01-11T16:42:07;45.10;;;20.30;;
73951;SDS011;62304;47.662;18.324;2024-01-11T16:45:14;43.30;;;18.80;;
73951;SDS011;62304;47.662;18.324;2024-01-11T16:48:18;42.42;;;17.52;;
73951;SDS011;62304;47.662;18.324;2024-01-11T16:51:21;40.88;;;17.50;;
73951;SDS011;62304;47.662;18.324;2024-01-11T16:54:25;49.90;;;20.33;;
73951;SDS011;62304;47.662;18.324;2024-01-11T16:57:28;42.17;;;19.80;;
73951;SDS011;62304;47.662;18.324;2024-01-11T17:00:31;46.90;;;19.67;;
73951;SDS011;62304;47.662;18.324;2024-01-11T17:03:35;41.55;;;18.35;;
73951;SDS011;62304;47.662;18.324;2024-01-11T17:06:39;51.53;;;21.20;;
73951;SDS011;62304;47.662;18.324;2024-01-11T17:09:42;51.00;;;21.20;;
73951;SDS011;62304;47.662;18.324;2024-01-11T17:12:46;52.65;;;22.20;;
73951;SDS011;62304;47.662;18.324;2024-01-11T17:15:50;45.30;;;20.55;;
73951;SDS011;62304;47.662;18.324;2024-01-11T17:18:54;45.50;;;18.80;;
73951;SDS011;62304;47.662;18.324;2024-01-11T17:21:57;42.80;;;17.67;;
73951;SDS011;62304;47.662;18.324;2024-01-11T17:25:01;41.80;;;18.12;;
73951;SDS011;62304;47.662;18.324;2024-01-11T17:28:04;44.93;;;20.47;;
73951;SDS011;62304;47.662;18.324;2024-01-11T17:31:08;55.45;;;21.12;;
73951;SDS011;62304;47.662;18.324;2024-01-11T17:34:10;53.20;;;22.13;;
73951;SDS011;62304;47.662;18.324;2024-01-11T17:37:14;54.63;;;22.02;;
73951;SDS011;62304;47.662;18.324;2024-01-11T17:40:23;53.63;;;22.33;;
73951;SDS011;62304;47.662;18.324;2024-01-11T17:43:26;58.97;;;24.00;;
73951;SDS011;62304;47.662;18.324;2024-01-11T17:46:30;57.88;;;25.42;;